sensor_id;sensor_type;location;lat;lon;timestamp;pressure;altitude;pressure_sealevel;temperature
67509;BMP280;54354;44.724;11.284;2023-08-12T00:00:19;102159.41;;;29.89
67509;BMP280;54354;44.724;11.284;2023-08-12T00:02:46;102161.41;;;29.89
67509;BMP280;54354;44.724;11.284;2023-08-12T00:05:12;102152.97;;;29.87
67509;BMP280;54354;44.724;11.284;2023-08-12T00:07:39;102152.78;;;29.85
67509;BMP280;54354;44.724;11.284;2023-08-12T00:10:09;102153.44;;;29.91
67509;BMP280;54354;44.724;11.284;2023-08-12T00:12:36;102146.56;;;29.84
67509;BMP280;54354;44.724;11.284;2023-08-12T00:15:03;102141.84;;;29.85
67509;BMP280;54354;44.724;11.284;2023-08-12T00:17:30;102129.50;;;29.78
67509;BMP280;54354;44.724;11.284;2023-08-12T00:19:56;102137.13;;;29.85
67509;BMP280;54354;44.724;11.284;2023-08-12T00:22:22;102134.88;;;29.84
67509;BMP280;54354;44.724;11.284;2023-08-12T00:24:48;102127.72;;;29.81
67509;BMP280;54354;44.724;11.284;2023-08-12T00:27:13;102127.50;;;29.79
67509;BMP280;54354;44.724;11.284;2023-08-12T00:29:39;102125.06;;;29.75
67509;BMP280;54354;44.724;11.284;2023-08-12T00:32:05;102126.84;;;29.73
67509;BMP280;54354;44.724;11.284;2023-08-12T00:34:31;102132.81;;;29.71
67509;BMP280;54354;44.724;11.284;2023-08-12T00:36:56;102125.88;;;29.70
67509;BMP280;54354;44.724;11.284;2023-08-12T00:39:22;102129.56;;;29.73
67509;BMP280;54354;44.724;11.284;2023-08-12T00:41:48;102136.28;;;29.72
67509;BMP280;54354;44.724;11.284;2023-08-12T00:44:13;102135.03;;;29.73
67509;BMP280;54354;44.724;11.284;2023-08-12T00:46:40;102126.38;;;29.69
67509;BMP280;54354;44.724;11.284;2023-08-12T00:49:06;102129.81;;;29.69
67509;BMP280;54354;44.724;11.284;2023-08-12T00:51:32;102132.56;;;29.69
67509;BMP280;54354;44.724;11.284;2023-08-12T00:53:58;102126.38;;;29.69
67509;BMP280;54354;44.724;11.284;2023-08-12T00:56:26;102122.66;;;29.66
67509;BMP280;54354;44.724;11.284;2023-08-12T00:58:52;102123.94;;;29.65
67509;BMP280;54354;44.724;11.284;2023-08-12T01:01:19;102116.25;;;29.63
67509;BMP280;54354;44.724;11.284;2023-08-12T01:03:45;102124.44;;;29.63
67509;BMP280;54354;44.724;11.284;2023-08-12T01:06:14;102110.13;;;29.57
67509;BMP280;54354;44.724;11.284;2023-08-12T01:08:43;102122.22;;;29.62
67509;BMP280;54354;44.724;11.284;2023-08-12T01:46:55;102089.03;;;29.34
67509;BMP280;54354;44.724;11.284;2023-08-12T01:49:20;102088.34;;;29.27
67509;BMP280;54354;44.724;11.284;2023-08-12T01:51:48;102088.63;;;29.24
67509;BMP280;54354;44.724;11.284;2023-08-12T01:54:14;102092.38;;;29.21
67509;BMP280;54354;44.724;11.284;2023-08-12T01:56:39;102096.84;;;29.18
67509;BMP280;54354;44.724;11.284;2023-08-12T01:59:05;102094.91;;;29.13
67509;BMP280;54354;44.724;11.284;2023-08-12T02:01:31;102089.00;;;29.09
67509;BMP280;54354;44.724;11.284;2023-08-12T02:03:56;102092.00;;;29.06
67509;BMP280;54354;44.724;11.284;2023-08-12T02:06:22;102090.28;;;29.03
67509;BMP280;54354;44.724;11.284;2023-08-12T02:08:47;102086.59;;;29.00
67509;BMP280;54354;44.724;11.284;2023-08-12T02:11:13;102086.59;;;29.00
67509;BMP280;54354;44.724;11.284;2023-08-12T02:13:38;102092.56;;;28.98
67509;BMP280;54354;44.724;11.284;2023-08-12T02:16:04;102088.88;;;28.96
67509;BMP280;54354;44.724;11.284;2023-08-12T02:18:29;102083.69;;;28.92
67509;BMP280;54354;44.724;11.284;2023-08-12T02:20:55;102093.34;;;28.93
67509;BMP280;54354;44.724;11.284;2023-08-12T02:23:20;102092.63;;;28.93
67509;BMP280;54354;44.724;11.284;2023-08-12T02:25:46;102088.97;;;28.85
67509;BMP280;54354;44.724;11.284;2023-08-12T02:28:12;102092.94;;;28.84
67509;BMP280;54354;44.724;11.284;2023-08-12T02:30:37;102096.66;;;28.81
67509;BMP280;54354;44.724;11.284;2023-08-12T02:33:03;102097.22;;;28.74
67509;BMP280;54354;44.724;11.284;2023-08-12T02:35:28;102098.22;;;28.71
67509;BMP280;54354;44.724;11.284;2023-08-12T02:37:54;102093.31;;;28.63
67509;BMP280;54354;44.724;11.284;2023-08-12T02:40:19;102094.06;;;28.64
67509;BMP280;54354;44.724;11.284;2023-08-12T02:42:46;102089.63;;;28.61
67509;BMP280;54354;44.724;11.284;2023-08-12T02:45:12;102091.38;;;28.58
67509;BMP280;54354;44.724;11.284;2023-08-12T02:47:37;102095.34;;;28.57
67509;BMP280;54354;44.724;11.284;2023-08-12T02:50:03;102083.97;;;28.53
67509;BMP280;54354;44.724;11.284;2023-08-12T02:52:29;102088.69;;;28.47
67509;BMP280;54354;44.724;11.284;2023-08-12T02:54:54;102096.13;;;28.47
67509;BMP280;54354;44.724;11.284;2023-08-12T02:57:21;102100.38;;;28.48
67509;BMP280;54354;44.724;11.284;2023-08-12T02:59:47;102091.41;;;28.47
67509;BMP280;54354;44.724;11.284;2023-08-12T03:02:12;102097.13;;;28.44
67509;BMP280;54354;44.724;11.284;2023-08-12T03:04:38;102099.16;;;28.43
67509;BMP280;54354;44.724;11.284;2023-08-12T03:07:04;102099.66;;;28.42
67509;BMP280;54354;44.724;11.284;2023-08-12T03:09:29;102096.44;;;28.43
67509;BMP280;54354;44.724;11.284;2023-08-12T03:11:55;102095.16;;;28.44
67509;BMP280;54354;44.724;11.284;2023-08-12T03:14:22;102098.41;;;28.43
67509;BMP280;54354;44.724;11.284;2023-08-12T03:16:47;102093.69;;;28.43
67509;BMP280;54354;44.724;11.284;2023-08-12T03:19:13;102088.25;;;28.43
67509;BMP280;54354;44.724;11.284;2023-08-12T03:21:39;102091.72;;;28.38
67509;BMP280;54354;44.724;11.284;2023-08-12T03:24:05;102085.06;;;28.39
67509;BMP280;54354;44.724;11.284;2023-08-12T03:26:30;102088.25;;;28.38
67509;BMP280;54354;44.724;11.284;2023-08-12T03:28:57;102080.59;;;28.36
67509;BMP280;54354;44.724;11.284;2023-08-12T03:31:23;102082.81;;;28.38
67509;BMP280;54354;44.724;11.284;2023-08-12T03:33:49;102085.31;;;28.36
67509;BMP280;54354;44.724;11.284;2023-08-12T03:36:15;102083.81;;;28.34
67509;BMP280;54354;44.724;11.284;2023-08-12T03:38:41;102083.81;;;28.34
67509;BMP280;54354;44.724;11.284;2023-08-12T03:41:11;102084.06;;;28.37
67509;BMP280;54354;44.724;11.284;2023-08-12T03:43:37;102079.91;;;28.30
67509;BMP280;54354;44.724;11.284;2023-08-12T03:46:03;102074.94;;;28.28
67509;BMP280;54354;44.724;11.284;2023-08-12T03:48:31;102085.13;;;28.28
67509;BMP280;54354;44.724;11.284;2023-08-12T03:50:58;102090.56;;;28.28
67509;BMP280;54354;44.724;11.284;2023-08-12T03:53:24;102090.56;;;28.28
67509;BMP280;54354;44.724;11.284;2023-08-12T03:55:51;102086.59;;;28.23
67509;BMP280;54354;44.724;11.284;2023-08-12T03:58:17;102090.56;;;28.22
67509;BMP280;54354;44.724;11.284;2023-08-12T04:00:45;102082.69;;;28.19
67509;BMP280;54354;44.724;11.284;2023-08-12T04:03:13;102086.66;;;28.18
67509;BMP280;54354;44.724;11.284;2023-08-12T04:05:49;102081.69;;;28.16
67509;BMP280;54354;44.724;11.284;2023-08-12T04:08:19;102077.00;;;28.11
67509;BMP280;54354;44.724;11.284;2023-08-12T04:10:46;102084.19;;;28.09
67509;BMP280;54354;44.724;11.284;2023-08-12T04:13:13;102087.19;;;28.05
67509;BMP280;54354;44.724;11.284;2023-08-12T04:15:39;102080.25;;;28.04
67509;BMP280;54354;44.724;11.284;2023-08-12T04:18:05;102084.72;;;28.01
67509;BMP280;54354;44.724;11.284;2023-08-12T04:20:30;102080.25;;;28.04
67509;BMP280;54354;44.724;11.284;2023-08-12T04:22:56;102083.25;;;28.00
67509;BMP280;54354;44.724;11.284;2023-08-12T04:25:22;102080.28;;;27.98
67509;BMP280;54354;44.724;11.284;2023-08-12T04:27:48;102076.31;;;27.99
67509;BMP280;54354;44.724;11.284;2023-08-12T04:30:16;102066.41;;;27.96
67509;BMP280;54354;44.724;11.284;2023-08-12T04:32:42;102078.28;;;27.99
67509;BMP280;54354;44.724;11.284;2023-08-12T04:35:08;102071.13;;;27.96
67509;BMP280;54354;44.724;11.284;2023-08-12T04:37:35;102080.03;;;27.96
67509;BMP280;54354;44.724;11.284;2023-08-12T04:40:02;102076.06;;;27.97
67509;BMP280;54354;44.724;11.284;2023-08-12T04:42:33;102061.47;;;27.95
67509;BMP280;54354;44.724;11.284;2023-08-12T04:44:59;102067.91;;;27.97
67509;BMP280;54354;44.724;11.284;2023-08-12T04:47:26;102067.66;;;27.95
67509;BMP280;54354;44.724;11.284;2023-08-12T04:49:52;102068.63;;;27.98
67509;BMP280;54354;44.724;11.284;2023-08-12T04:52:18;102072.63;;;27.97
67509;BMP280;54354;44.724;11.284;2023-08-12T04:54:43;102078.09;;;27.97
67509;BMP280;54354;44.724;11.284;2023-08-12T04:57:09;102075.56;;;27.99
67509;BMP280;54354;44.724;11.284;2023-08-12T04:59:35;102076.06;;;27.97
67509;BMP280;54354;44.724;11.284;2023-08-12T05:02:01;102081.50;;;27.97
67509;BMP280;54354;44.724;11.284;2023-08-12T05:04:26;102078.78;;;27.97
67509;BMP280;54354;44.724;11.284;2023-08-12T05:06:53;102072.09;;;27.98
67509;BMP280;54354;44.724;11.284;2023-08-12T05:09:18;102076.81;;;27.98
67509;BMP280;54354;44.724;11.284;2023-08-12T05:11:44;102082.25;;;27.98
67509;BMP280;54354;44.724;11.284;2023-08-12T05:14:10;102085.47;;;27.96
67509;BMP280;54354;44.724;11.284;2023-08-12T05:16:35;102091.41;;;28.00
67509;BMP280;54354;44.724;11.284;2023-08-12T05:19:01;102082.25;;;27.98
67509;BMP280;54354;44.724;11.284;2023-08-12T05:21:26;102089.94;;;27.99
67509;BMP280;54354;44.724;11.284;2023-08-12T05:23:52;102085.72;;;27.98
67509;BMP280;54354;44.724;11.284;2023-08-12T05:26:18;102079.03;;;27.99
67509;BMP280;54354;44.724;11.284;2023-08-12T05:28:43;102085.69;;;28.04
67509;BMP280;54354;44.724;11.284;2023-08-12T05:31:09;102094.59;;;28.05
67509;BMP280;54354;44.724;11.284;2023-08-12T05:33:34;102101.03;;;28.07
67509;BMP280;54354;44.724;11.284;2023-08-12T05:36:00;102089.91;;;28.05
67509;BMP280;54354;44.724;11.284;2023-08-12T05:38:25;102097.81;;;28.09
67509;BMP280;54354;44.724;11.284;2023-08-12T05:40:51;102095.84;;;28.09
67509;BMP280;54354;44.724;11.284;2023-08-12T05:43:17;102099.78;;;28.14
67509;BMP280;54354;44.724;11.284;2023-08-12T05:45:42;102107.69;;;28.17
67509;BMP280;54354;44.724;11.284;2023-08-12T05:48:08;102109.94;;;28.19
67509;BMP280;54354;44.724;11.284;2023-08-12T05:50:33;102114.09;;;28.20
67509;BMP280;54354;44.724;11.284;2023-08-12T05:52:59;102113.84;;;28.23
67509;BMP280;54354;44.724;11.284;2023-08-12T05:55:24;102114.06;;;28.25
67509;BMP280;54354;44.724;11.284;2023-08-12T05:57:50;102114.34;;;28.27
67509;BMP280;54354;44.724;11.284;2023-08-12T06:00:16;102117.28;;;28.29
67509;BMP280;54354;44.724;11.284;2023-08-12T06:02:41;102108.13;;;28.32
67509;BMP280;54354;44.724;11.284;2023-08-12T06:05:07;102114.53;;;28.35
67509;BMP280;54354;44.724;11.284;2023-08-12T06:07:33;102115.28;;;28.36
67509;BMP280;54354;44.724;11.284;2023-08-12T06:10:00;102111.81;;;28.35
67509;BMP280;54354;44.724;11.284;2023-08-12T06:12:25;102108.59;;;28.37
67509;BMP280;54354;44.724;11.284;2023-08-12T06:14:51;102108.84;;;28.39
67509;BMP280;54354;44.724;11.284;2023-08-12T06:17:16;102106.59;;;28.43
67509;BMP280;54354;44.724;11.284;2023-08-12T06:19:42;102109.31;;;28.43
67509;BMP280;54354;44.724;11.284;2023-08-12T06:22:07;102101.38;;;28.45
67509;BMP280;54354;44.724;11.284;2023-08-12T06:24:33;102110.50;;;28.47
67509;BMP280;54354;44.724;11.284;2023-08-12T06:26:58;102108.75;;;28.50
67509;BMP280;54354;44.724;11.284;2023-08-12T06:29:24;102107.75;;;28.53
67509;BMP280;54354;44.724;11.284;2023-08-12T06:31:49;102108.25;;;28.57
67509;BMP280;54354;44.724;11.284;2023-08-12T06:34:15;102105.25;;;28.60
67509;BMP280;54354;44.724;11.284;2023-08-12T06:36:40;102112.13;;;28.67
67509;BMP280;54354;44.724;11.284;2023-08-12T06:39:06;102108.13;;;28.74
67509;BMP280;54354;44.724;11.284;2023-08-12T06:41:31;102093.94;;;28.81
67509;BMP280;54354;44.724;11.284;2023-08-12T06:43:57;102094.28;;;29.02
67509;BMP280;54354;44.724;11.284;2023-08-12T06:46:22;102096.28;;;29.25
67509;BMP280;54354;44.724;11.284;2023-08-12T06:48:48;102098.97;;;29.55
67509;BMP280;54354;44.724;11.284;2023-08-12T06:51:13;102080.84;;;29.95
67509;BMP280;54354;44.724;11.284;2023-08-12T06:53:42;102086.81;;;30.50
67509;BMP280;54354;44.724;11.284;2023-08-12T06:56:08;102091.78;;;30.97
67509;BMP280;54354;44.724;11.284;2023-08-12T06:58:34;102088.50;;;31.38
67509;BMP280;54354;44.724;11.284;2023-08-12T07:00:59;102092.56;;;31.84
67509;BMP280;54354;44.724;11.284;2023-08-12T07:03:25;102093.38;;;32.26
67509;BMP280;54354;44.724;11.284;2023-08-12T07:05:52;102093.13;;;32.66
67509;BMP280;54354;44.724;11.284;2023-08-12T07:08:17;102097.28;;;33.09
67509;BMP280;54354;44.724;11.284;2023-08-12T07:10:43;102095.28;;;33.53
67509;BMP280;54354;44.724;11.284;2023-08-12T07:13:08;102098.69;;;33.97
67509;BMP280;54354;44.724;11.284;2023-08-12T07:15:35;102094.50;;;34.34
67509;BMP280;54354;44.724;11.284;2023-08-12T07:18:01;102097.75;;;34.63
67509;BMP280;54354;44.724;11.284;2023-08-12T07:20:26;102090.53;;;34.90
67509;BMP280;54354;44.724;11.284;2023-08-12T07:22:52;102101.44;;;35.21
67509;BMP280;54354;44.724;11.284;2023-08-12T07:25:17;102087.22;;;35.39
67509;BMP280;54354;44.724;11.284;2023-08-12T07:27:43;102091.75;;;35.52
67509;BMP280;54354;44.724;11.284;2023-08-12T07:30:09;102088.38;;;35.61
67509;BMP280;54354;44.724;11.284;2023-08-12T07:32:37;102086.25;;;35.77
67509;BMP280;54354;44.724;11.284;2023-08-12T07:35:03;102089.31;;;35.89
67509;BMP280;54354;44.724;11.284;2023-08-12T07:37:29;102090.78;;;35.90
67509;BMP280;54354;44.724;11.284;2023-08-12T07:39:54;102081.09;;;36.06
67509;BMP280;54354;44.724;11.284;2023-08-12T07:42:20;102089.72;;;36.27
67509;BMP280;54354;44.724;11.284;2023-08-12T07:44:45;102086.97;;;36.44
67509;BMP280;54354;44.724;11.284;2023-08-12T07:47:11;102084.38;;;36.46
67509;BMP280;54354;44.724;11.284;2023-08-12T07:49:37;102087.22;;;36.56
67509;BMP280;54354;44.724;11.284;2023-08-12T07:52:02;102089.16;;;36.63
67509;BMP280;54354;44.724;11.284;2023-08-12T07:54:28;102091.13;;;36.70
67509;BMP280;54354;44.724;11.284;2023-08-12T07:56:53;102088.16;;;36.85
67509;BMP280;54354;44.724;11.284;2023-08-12T07:59:20;102086.03;;;37.11
67509;BMP280;54354;44.724;11.284;2023-08-12T08:01:46;102094.78;;;37.17
67509;BMP280;54354;44.724;11.284;2023-08-12T08:04:11;102089.78;;;37.33
67509;BMP280;54354;44.724;11.284;2023-08-12T08:06:37;102084.22;;;37.59
67509;BMP280;54354;44.724;11.284;2023-08-12T08:09:03;102081.50;;;37.79
67509;BMP280;54354;44.724;11.284;2023-08-12T08:11:30;102081.84;;;37.92
67509;BMP280;54354;44.724;11.284;2023-08-12T08:13:57;102081.84;;;38.02
67509;BMP280;54354;44.724;11.284;2023-08-12T08:16:23;102084.63;;;38.02
67509;BMP280;54354;44.724;11.284;2023-08-12T08:18:49;102086.91;;;37.86
67509;BMP280;54354;44.724;11.284;2023-08-12T08:21:14;102079.44;;;37.70
67509;BMP280;54354;44.724;11.284;2023-08-12T08:23:41;102070.81;;;37.56
67509;BMP280;54354;44.724;11.284;2023-08-12T08:26:07;102078.66;;;37.50
67509;BMP280;54354;44.724;11.284;2023-08-12T08:28:33;102074.25;;;37.47
67509;BMP280;54354;44.724;11.284;2023-08-12T08:31:02;102072.25;;;37.20
67509;BMP280;54354;44.724;11.284;2023-08-12T08:33:27;102078.66;;;37.23
67509;BMP280;54354;44.724;11.284;2023-08-12T08:35:53;102080.38;;;37.18
67509;BMP280;54354;44.724;11.284;2023-08-12T08:38:19;102073.94;;;37.06
67509;BMP280;54354;44.724;11.284;2023-08-12T08:40:45;102083.56;;;36.88
67509;BMP280;54354;44.724;11.284;2023-08-12T08:43:14;102076.59;;;36.70
67509;BMP280;54354;44.724;11.284;2023-08-12T08:45:41;102084.16;;;36.52
67509;BMP280;54354;44.724;11.284;2023-08-12T08:48:08;102078.81;;;36.12
67509;BMP280;54354;44.724;11.284;2023-08-12T08:50:36;102081.25;;;35.58
67509;BMP280;54354;44.724;11.284;2023-08-12T08:53:04;102077.66;;;35.00
67509;BMP280;54354;44.724;11.284;2023-08-12T08:55:33;102082.31;;;34.75
67509;BMP280;54354;44.724;11.284;2023-08-12T08:57:58;102084.41;;;34.36
67509;BMP280;54354;44.724;11.284;2023-08-12T09:00:25;102084.38;;;33.98
67509;BMP280;54354;44.724;11.284;2023-08-12T09:02:51;102081.94;;;33.72
67509;BMP280;54354;44.724;11.284;2023-08-12T09:05:18;102078.22;;;33.54
67509;BMP280;54354;44.724;11.284;2023-08-12T09:07:46;102074.41;;;33.57
67509;BMP280;54354;44.724;11.284;2023-08-12T09:10:13;102082.50;;;33.63
67509;BMP280;54354;44.724;11.284;2023-08-12T09:12:39;102080.09;;;33.59
67509;BMP280;54354;44.724;11.284;2023-08-12T09:15:05;102079.16;;;33.57
67509;BMP280;54354;44.724;11.284;2023-08-12T09:17:31;102085.75;;;33.54
67509;BMP280;54354;44.724;11.284;2023-08-12T09:19:58;102090.09;;;33.42
67509;BMP280;54354;44.724;11.284;2023-08-12T09:22:24;102077.25;;;33.37
67509;BMP280;54354;44.724;11.284;2023-08-12T09:24:55;102078.53;;;33.36
67509;BMP280;54354;44.724;11.284;2023-08-12T09:27:21;102080.34;;;33.33
67509;BMP280;54354;44.724;11.284;2023-08-12T09:29:47;102079.03;;;33.19
67509;BMP280;54354;44.724;11.284;2023-08-12T09:32:18;102071.28;;;33.10
67509;BMP280;54354;44.724;11.284;2023-08-12T09:34:52;102072.56;;;33.09
67509;BMP280;54354;44.724;11.284;2023-08-12T09:37:19;102075.47;;;33.03
67509;BMP280;54354;44.724;11.284;2023-08-12T09:39:46;102063.03;;;33.02
67509;BMP280;54354;44.724;11.284;2023-08-12T09:42:12;102073.81;;;33.08
67509;BMP280;54354;44.724;11.284;2023-08-12T09:44:38;102070.69;;;33.04
67509;BMP280;54354;44.724;11.284;2023-08-12T09:47:05;102072.00;;;33.10
67509;BMP280;54354;44.724;11.284;2023-08-12T09:49:32;102068.81;;;33.27
67509;BMP280;54354;44.724;11.284;2023-08-12T09:51:58;102074.50;;;33.29
67509;BMP280;54354;44.724;11.284;2023-08-12T09:54:26;102065.09;;;33.17
67509;BMP280;54354;44.724;11.284;2023-08-12T09:56:56;102054.47;;;33.13
67509;BMP280;54354;44.724;11.284;2023-08-12T09:59:22;102060.34;;;33.17
67509;BMP280;54354;44.724;11.284;2023-08-12T10:01:49;102061.97;;;33.13
67509;BMP280;54354;44.724;11.284;2023-08-12T10:04:22;102046.38;;;33.08
67509;BMP280;54354;44.724;11.284;2023-08-12T10:06:48;102054.44;;;33.06
67509;BMP280;54354;44.724;11.284;2023-08-12T10:09:17;102044.09;;;32.91
67509;BMP280;54354;44.724;11.284;2023-08-12T10:11:45;102048.31;;;32.92
67509;BMP280;54354;44.724;11.284;2023-08-12T10:14:12;102042.94;;;32.79
67509;BMP280;54354;44.724;11.284;2023-08-12T10:16:38;102049.16;;;32.79
67509;BMP280;54354;44.724;11.284;2023-08-12T10:19:05;102043.09;;;32.81
67509;BMP280;54354;44.724;11.284;2023-08-12T10:21:31;102041.88;;;32.82
67509;BMP280;54354;44.724;11.284;2023-08-12T10:23:58;102033.06;;;32.83
67509;BMP280;54354;44.724;11.284;2023-08-12T10:26:24;102027.06;;;32.85
67509;BMP280;54354;44.724;11.284;2023-08-12T10:28:50;102030.75;;;32.95
67509;BMP280;54354;44.724;11.284;2023-08-12T10:31:16;102028.16;;;32.89
67509;BMP280;54354;44.724;11.284;2023-08-12T10:33:42;102021.56;;;32.85
67509;BMP280;54354;44.724;11.284;2023-08-12T10:36:08;102020.66;;;32.82
67509;BMP280;54354;44.724;11.284;2023-08-12T10:38:34;102016.75;;;32.78
67509;BMP280;54354;44.724;11.284;2023-08-12T10:41:25;102009.50;;;32.88
67509;BMP280;54354;44.724;11.284;2023-08-12T10:44:01;102010.63;;;32.92
67509;BMP280;54354;44.724;11.284;2023-08-12T10:46:36;102005.28;;;32.87
67509;BMP280;54354;44.724;11.284;2023-08-12T10:49:07;102000.88;;;32.84
67509;BMP280;54354;44.724;11.284;2023-08-12T10:51:50;101999.97;;;32.81
67509;BMP280;54354;44.724;11.284;2023-08-12T10:59:48;101995.22;;;32.82
67509;BMP280;54354;44.724;11.284;2023-08-12T11:02:21;101998.31;;;32.78
67509;BMP280;54354;44.724;11.284;2023-08-12T11:04:52;101987.63;;;32.75
67509;BMP280;54354;44.724;11.284;2023-08-12T11:07:19;101983.88;;;32.85
67509;BMP280;54354;44.724;11.284;2023-08-12T11:09:45;101987.38;;;32.93
67509;BMP280;54354;44.724;11.284;2023-08-12T11:12:17;101974.78;;;32.98
67509;BMP280;54354;44.724;11.284;2023-08-12T11:14:53;101978.66;;;33.10
67509;BMP280;54354;44.724;11.284;2023-08-12T11:17:19;101975.81;;;33.23
67509;BMP280;54354;44.724;11.284;2023-08-12T11:19:44;101982.03;;;33.24
67509;BMP280;54354;44.724;11.284;2023-08-12T11:22:11;101967.69;;;33.10
67509;BMP280;54354;44.724;11.284;2023-08-12T11:24:40;101964.31;;;32.89
67509;BMP280;54354;44.724;11.284;2023-08-12T11:27:10;101956.06;;;32.81
67509;BMP280;54354;44.724;11.284;2023-08-12T11:29:38;101968.72;;;32.92
67509;BMP280;54354;44.724;11.284;2023-08-12T11:32:05;101955.97;;;33.10
67509;BMP280;54354;44.724;11.284;2023-08-12T11:34:31;101962.25;;;33.25
67509;BMP280;54354;44.724;11.284;2023-08-12T11:36:58;101953.84;;;33.23
67509;BMP280;54354;44.724;11.284;2023-08-12T11:39:23;101955.47;;;33.19
67509;BMP280;54354;44.724;11.284;2023-08-12T11:41:49;101957.47;;;33.11
67509;BMP280;54354;44.724;11.284;2023-08-12T11:44:16;101952.72;;;33.11
67509;BMP280;54354;44.724;11.284;2023-08-12T11:46:42;101950.75;;;33.27
67509;BMP280;54354;44.724;11.284;2023-08-12T11:49:07;101948.72;;;33.43
67509;BMP280;54354;44.724;11.284;2023-08-12T11:51:34;101940.13;;;33.39
67509;BMP280;54354;44.724;11.284;2023-08-12T11:54:01;101945.28;;;33.35
67509;BMP280;54354;44.724;11.284;2023-08-12T11:56:27;101945.94;;;33.27
67509;BMP280;54354;44.724;11.284;2023-08-12T11:58:53;101942.81;;;33.16
67509;BMP280;54354;44.724;11.284;2023-08-12T12:01:21;101928.31;;;33.00
67509;BMP280;54354;44.724;11.284;2023-08-12T12:03:59;101934.16;;;32.96
67509;BMP280;54354;44.724;11.284;2023-08-12T12:06:35;101932.75;;;33.11
67509;BMP280;54354;44.724;11.284;2023-08-12T12:09:06;101926.91;;;33.14
67509;BMP280;54354;44.724;11.284;2023-08-12T12:11:38;101925.63;;;33.15
67509;BMP280;54354;44.724;11.284;2023-08-12T12:14:09;101924.56;;;33.26
67509;BMP280;54354;44.724;11.284;2023-08-12T12:16:44;101918.84;;;33.16
67509;BMP280;54354;44.724;11.284;2023-08-12T12:19:20;101911.47;;;33.04
67509;BMP280;54354;44.724;11.284;2023-08-12T12:21:48;101911.66;;;32.98
67509;BMP280;54354;44.724;11.284;2023-08-12T12:24:15;101920.44;;;32.96
67509;BMP280;54354;44.724;11.284;2023-08-12T12:26:40;101917.91;;;33.06
67509;BMP280;54354;44.724;11.284;2023-08-12T12:29:07;101915.91;;;33.22
67509;BMP280;54354;44.724;11.284;2023-08-12T12:31:34;101906.09;;;33.42
67509;BMP280;54354;44.724;11.284;2023-08-12T12:34:03;101908.66;;;33.47
67509;BMP280;54354;44.724;11.284;2023-08-12T12:36:30;101906.06;;;33.49
67509;BMP280;54354;44.724;11.284;2023-08-12T12:38:59;101902.94;;;33.45
67509;BMP280;54354;44.724;11.284;2023-08-12T12:41:25;101901.69;;;33.54
67509;BMP280;54354;44.724;11.284;2023-08-12T12:43:50;101904.25;;;33.52
67509;BMP280;54354;44.724;11.284;2023-08-12T12:46:16;101901.88;;;33.41
67509;BMP280;54354;44.724;11.284;2023-08-12T12:48:42;101902.22;;;33.29
67509;BMP280;54354;44.724;11.284;2023-08-12T12:51:08;101908.59;;;33.24
67509;BMP280;54354;44.724;11.284;2023-08-12T12:53:33;101901.50;;;33.44
67509;BMP280;54354;44.724;11.284;2023-08-12T12:55:59;101895.84;;;33.65
67509;BMP280;54354;44.724;11.284;2023-08-12T12:58:32;101890.53;;;33.82
67509;BMP280;54354;44.724;11.284;2023-08-12T13:00:59;101896.19;;;33.92
67509;BMP280;54354;44.724;11.284;2023-08-12T13:03:25;101898.25;;;33.76
67509;BMP280;54354;44.724;11.284;2023-08-12T13:05:50;101900.78;;;33.59
67509;BMP280;54354;44.724;11.284;2023-08-12T13:08:16;101896.53;;;33.43
67509;BMP280;54354;44.724;11.284;2023-08-12T13:10:42;101891.25;;;33.29
67509;BMP280;54354;44.724;11.284;2023-08-12T13:13:07;101887.78;;;33.29
67509;BMP280;54354;44.724;11.284;2023-08-12T13:15:34;101879.34;;;33.42
67509;BMP280;54354;44.724;11.284;2023-08-12T13:18:00;101872.38;;;33.64
67509;BMP280;54354;44.724;11.284;2023-08-12T13:20:25;101873.47;;;33.84
67509;BMP280;54354;44.724;11.284;2023-08-12T13:22:51;101874.59;;;33.88
67509;BMP280;54354;44.724;11.284;2023-08-12T13:25:16;101872.56;;;33.89
67509;BMP280;54354;44.724;11.284;2023-08-12T13:27:42;101863.59;;;33.81
67509;BMP280;54354;44.724;11.284;2023-08-12T13:30:09;101862.16;;;33.64
67509;BMP280;54354;44.724;11.284;2023-08-12T13:32:37;101861.06;;;33.52
67509;BMP280;54354;44.724;11.284;2023-08-12T13:35:03;101853.53;;;33.38
67509;BMP280;54354;44.724;11.284;2023-08-12T13:37:29;101853.88;;;33.34
67509;BMP280;54354;44.724;11.284;2023-08-12T13:39:54;101852.41;;;33.33
67509;BMP280;54354;44.724;11.284;2023-08-12T13:42:20;101853.16;;;33.26
67509;BMP280;54354;44.724;11.284;2023-08-12T13:44:46;101854.06;;;33.21
67509;BMP280;54354;44.724;11.284;2023-08-12T13:47:11;101844.38;;;33.20
67509;BMP280;54354;44.724;11.284;2023-08-12T13:49:37;101843.66;;;33.27
67509;BMP280;54354;44.724;11.284;2023-08-12T13:52:02;101834.47;;;33.24
67509;BMP280;54354;44.724;11.284;2023-08-12T13:54:28;101825.53;;;33.24
67509;BMP280;54354;44.724;11.284;2023-08-12T13:56:53;101826.78;;;33.15
67509;BMP280;54354;44.724;11.284;2023-08-12T13:59:19;101822.22;;;33.18
67509;BMP280;54354;44.724;11.284;2023-08-12T14:01:45;101817.47;;;33.26
67509;BMP280;54354;44.724;11.284;2023-08-12T14:04:11;101827.72;;;33.33
67509;BMP280;54354;44.724;11.284;2023-08-12T14:06:36;101818.03;;;33.32
67509;BMP280;54354;44.724;11.284;2023-08-12T14:09:02;101814.88;;;33.28
67509;BMP280;54354;44.724;11.284;2023-08-12T14:11:27;101810.13;;;33.21
67509;BMP280;54354;44.724;11.284;2023-08-12T14:13:53;101813.78;;;33.16
67509;BMP280;54354;44.724;11.284;2023-08-12T14:16:19;101799.50;;;33.10
67509;BMP280;54354;44.724;11.284;2023-08-12T14:18:44;101795.50;;;33.03
67509;BMP280;54354;44.724;11.284;2023-08-12T14:21:10;101800.59;;;32.99